Terminal Aerodrome Forecast
Issued by NWS Lake Charles, LA

Home | Current Version | Previous Version | Text Only | Print | Product List | Glossary On
Versions: 1 2 3 4 5 6 7 8 9 10 11 12 13 14 15 16 17 18 19 20
421
FTUS44 KLCH 281728
TAFAEX
TAF
KAEX 281728Z 2818/2918 16010KT P6SM BKN035
     FM290000 15008KT P6SM SCT035
     FM290500 14007KT P6SM OVC015
      TEMPO 2909/2913 5SM BR OVC006
     FM291500 15012KT P6SM BKN025=

USA.gov is the U.S. government's official web portal to all federal, state and local government web resources and services.